sensor_id;sensor_type;location;lat;lon;timestamp;P1;durP1;ratioP1;P2;durP2;ratioP2
70071;SDS011;57434;42.794;23.302;2023-09-07T00:00:58;7.60;;;3.90;;
70071;SDS011;57434;42.794;23.302;2023-09-07T00:02:00;6.97;;;3.58;;
70071;SDS011;57434;42.794;23.302;2023-09-07T00:03:02;8.00;;;4.25;;
70071;SDS011;57434;42.794;23.302;2023-09-07T00:04:04;9.35;;;4.32;;
70071;SDS011;57434;42.794;23.302;2023-09-07T00:05:07;10.63;;;4.53;;
70071;SDS011;57434;42.794;23.302;2023-09-07T00:06:09;7.43;;;3.72;;
70071;SDS011;57434;42.794;23.302;2023-09-07T00:07:11;7.78;;;3.88;;
70071;SDS011;57434;42.794;23.302;2023-09-07T00:08:12;7.82;;;4.15;;
70071;SDS011;57434;42.794;23.302;2023-09-07T00:09:14;11.07;;;4.05;;
70071;SDS011;57434;42.794;23.302;2023-09-07T00:10:16;11.45;;;3.67;;
70071;SDS011;57434;42.794;23.302;2023-09-07T00:11:18;8.10;;;3.87;;
70071;SDS011;57434;42.794;23.302;2023-09-07T00:12:20;7.85;;;4.18;;
70071;SDS011;57434;42.794;23.302;2023-09-07T00:13:22;9.05;;;4.60;;
70071;SDS011;57434;42.794;23.302;2023-09-07T00:14:24;9.05;;;4.63;;
70071;SDS011;57434;42.794;23.302;2023-09-07T00:15:26;10.95;;;4.93;;
70071;SDS011;57434;42.794;23.302;2023-09-07T00:16:27;10.52;;;4.75;;
70071;SDS011;57434;42.794;23.302;2023-09-07T00:17:29;8.82;;;5.30;;
70071;SDS011;57434;42.794;23.302;2023-09-07T00:18:31;9.43;;;5.30;;
70071;SDS011;57434;42.794;23.302;2023-09-07T00:19:33;9.82;;;5.57;;
70071;SDS011;57434;42.794;23.302;2023-09-07T00:20:35;9.48;;;5.30;;
70071;SDS011;57434;42.794;23.302;2023-09-07T00:21:37;10.77;;;6.00;;
70071;SDS011;57434;42.794;23.302;2023-09-07T00:22:39;12.20;;;5.65;;
70071;SDS011;57434;42.794;23.302;2023-09-07T00:23:40;11.52;;;6.00;;
70071;SDS011;57434;42.794;23.302;2023-09-07T00:24:42;12.35;;;6.60;;
70071;SDS011;57434;42.794;23.302;2023-09-07T00:25:44;11.07;;;5.72;;
70071;SDS011;57434;42.794;23.302;2023-09-07T00:26:46;11.18;;;6.13;;
70071;SDS011;57434;42.794;23.302;2023-09-07T00:27:47;13.05;;;5.68;;
70071;SDS011;57434;42.794;23.302;2023-09-07T00:28:49;9.48;;;6.35;;
70071;SDS011;57434;42.794;23.302;2023-09-07T00:29:50;11.23;;;6.22;;
70071;SDS011;57434;42.794;23.302;2023-09-07T00:30:52;9.32;;;5.82;;
70071;SDS011;57434;42.794;23.302;2023-09-07T00:31:53;9.83;;;6.60;;
70071;SDS011;57434;42.794;23.302;2023-09-07T00:32:55;11.65;;;6.13;;
70071;SDS011;57434;42.794;23.302;2023-09-07T00:33:57;9.95;;;6.40;;
70071;SDS011;57434;42.794;23.302;2023-09-07T00:34:59;13.23;;;6.63;;
70071;SDS011;57434;42.794;23.302;2023-09-07T00:36:01;10.63;;;6.00;;
70071;SDS011;57434;42.794;23.302;2023-09-07T00:37:03;11.85;;;6.18;;
70071;SDS011;57434;42.794;23.302;2023-09-07T00:38:05;11.82;;;6.45;;
70071;SDS011;57434;42.794;23.302;2023-09-07T00:39:06;11.98;;;6.25;;
70071;SDS011;57434;42.794;23.302;2023-09-07T00:40:08;10.07;;;6.15;;
70071;SDS011;57434;42.794;23.302;2023-09-07T00:41:10;12.82;;;6.18;;
70071;SDS011;57434;42.794;23.302;2023-09-07T00:42:11;10.60;;;6.23;;
70071;SDS011;57434;42.794;23.302;2023-09-07T00:43:13;11.65;;;6.32;;
70071;SDS011;57434;42.794;23.302;2023-09-07T00:44:14;11.57;;;6.10;;
70071;SDS011;57434;42.794;23.302;2023-09-07T00:45:16;10.82;;;6.45;;
70071;SDS011;57434;42.794;23.302;2023-09-07T00:46:18;11.20;;;6.30;;
70071;SDS011;57434;42.794;23.302;2023-09-07T00:47:20;10.75;;;6.20;;
70071;SDS011;57434;42.794;23.302;2023-09-07T00:48:22;10.52;;;6.60;;
70071;SDS011;57434;42.794;23.302;2023-09-07T00:49:25;9.55;;;6.22;;
70071;SDS011;57434;42.794;23.302;2023-09-07T00:50:26;10.35;;;6.20;;
70071;SDS011;57434;42.794;23.302;2023-09-07T00:51:28;9.98;;;6.35;;
70071;SDS011;57434;42.794;23.302;2023-09-07T00:52:30;9.80;;;6.40;;
70071;SDS011;57434;42.794;23.302;2023-09-07T00:53:32;11.63;;;6.20;;
70071;SDS011;57434;42.794;23.302;2023-09-07T00:54:34;10.70;;;6.15;;
70071;SDS011;57434;42.794;23.302;2023-09-07T00:55:36;12.18;;;5.97;;
70071;SDS011;57434;42.794;23.302;2023-09-07T00:56:38;11.35;;;5.95;;
70071;SDS011;57434;42.794;23.302;2023-09-07T00:57:40;11.52;;;6.00;;
70071;SDS011;57434;42.794;23.302;2023-09-07T00:58:42;15.60;;;6.03;;
70071;SDS011;57434;42.794;23.302;2023-09-07T00:59:44;11.68;;;6.00;;
70071;SDS011;57434;42.794;23.302;2023-09-07T01:00:46;10.15;;;5.95;;
70071;SDS011;57434;42.794;23.302;2023-09-07T01:01:47;10.15;;;5.82;;
70071;SDS011;57434;42.794;23.302;2023-09-07T01:02:49;9.37;;;5.50;;
70071;SDS011;57434;42.794;23.302;2023-09-07T01:03:51;10.13;;;6.10;;
70071;SDS011;57434;42.794;23.302;2023-09-07T01:04:53;9.90;;;6.00;;
70071;SDS011;57434;42.794;23.302;2023-09-07T01:05:57;10.23;;;5.38;;
70071;SDS011;57434;42.794;23.302;2023-09-07T01:07:03;13.38;;;5.90;;
70071;SDS011;57434;42.794;23.302;2023-09-07T01:08:09;10.98;;;5.75;;
70071;SDS011;57434;42.794;23.302;2023-09-07T01:09:15;10.35;;;5.60;;
70071;SDS011;57434;42.794;23.302;2023-09-07T01:10:18;9.95;;;5.80;;
70071;SDS011;57434;42.794;23.302;2023-09-07T01:11:37;12.80;;;5.90;;
70071;SDS011;57434;42.794;23.302;2023-09-07T01:12:40;9.63;;;5.85;;
70071;SDS011;57434;42.794;23.302;2023-09-07T01:13:41;10.13;;;5.63;;
70071;SDS011;57434;42.794;23.302;2023-09-07T01:14:44;9.80;;;5.75;;
70071;SDS011;57434;42.794;23.302;2023-09-07T01:15:45;10.60;;;5.80;;
70071;SDS011;57434;42.794;23.302;2023-09-07T01:16:48;10.65;;;5.80;;
70071;SDS011;57434;42.794;23.302;2023-09-07T01:17:50;11.02;;;6.40;;
70071;SDS011;57434;42.794;23.302;2023-09-07T01:18:52;10.10;;;5.88;;
70071;SDS011;57434;42.794;23.302;2023-09-07T01:19:54;10.68;;;6.00;;
70071;SDS011;57434;42.794;23.302;2023-09-07T01:20:59;8.45;;;5.38;;
70071;SDS011;57434;42.794;23.302;2023-09-07T01:22:01;10.60;;;6.03;;
70071;SDS011;57434;42.794;23.302;2023-09-07T01:23:04;9.98;;;5.60;;
70071;SDS011;57434;42.794;23.302;2023-09-07T01:24:06;10.97;;;5.33;;
70071;SDS011;57434;42.794;23.302;2023-09-07T01:25:08;8.82;;;5.63;;
70071;SDS011;57434;42.794;23.302;2023-09-07T01:26:10;10.20;;;5.63;;
70071;SDS011;57434;42.794;23.302;2023-09-07T01:27:12;11.48;;;5.38;;
70071;SDS011;57434;42.794;23.302;2023-09-07T01:28:14;11.05;;;5.20;;
70071;SDS011;57434;42.794;23.302;2023-09-07T01:29:16;10.07;;;5.68;;
70071;SDS011;57434;42.794;23.302;2023-09-07T01:30:18;11.57;;;6.13;;
70071;SDS011;57434;42.794;23.302;2023-09-07T01:31:20;12.13;;;5.50;;
70071;SDS011;57434;42.794;23.302;2023-09-07T01:32:22;8.75;;;5.57;;
70071;SDS011;57434;42.794;23.302;2023-09-07T01:33:24;10.93;;;5.80;;
70071;SDS011;57434;42.794;23.302;2023-09-07T01:34:26;10.83;;;5.80;;
70071;SDS011;57434;42.794;23.302;2023-09-07T01:35:28;11.27;;;6.38;;
70071;SDS011;57434;42.794;23.302;2023-09-07T01:36:30;13.23;;;6.22;;
70071;SDS011;57434;42.794;23.302;2023-09-07T01:37:32;12.02;;;6.53;;
70071;SDS011;57434;42.794;23.302;2023-09-07T01:38:34;12.73;;;6.20;;
70071;SDS011;57434;42.794;23.302;2023-09-07T01:39:35;13.23;;;6.85;;
70071;SDS011;57434;42.794;23.302;2023-09-07T01:40:37;9.88;;;6.00;;
70071;SDS011;57434;42.794;23.302;2023-09-07T01:41:39;10.60;;;5.68;;
70071;SDS011;57434;42.794;23.302;2023-09-07T01:42:41;9.75;;;6.13;;
70071;SDS011;57434;42.794;23.302;2023-09-07T01:43:43;9.60;;;5.70;;
70071;SDS011;57434;42.794;23.302;2023-09-07T01:44:45;10.50;;;6.27;;
70071;SDS011;57434;42.794;23.302;2023-09-07T01:45:46;12.38;;;6.10;;
70071;SDS011;57434;42.794;23.302;2023-09-07T01:46:48;10.63;;;6.30;;
70071;SDS011;57434;42.794;23.302;2023-09-07T01:47:50;10.68;;;6.40;;
70071;SDS011;57434;42.794;23.302;2023-09-07T01:48:51;10.13;;;6.25;;
70071;SDS011;57434;42.794;23.302;2023-09-07T01:49:53;11.85;;;6.32;;
70071;SDS011;57434;42.794;23.302;2023-09-07T01:50:55;11.38;;;6.35;;
70071;SDS011;57434;42.794;23.302;2023-09-07T01:51:57;9.93;;;6.15;;
70071;SDS011;57434;42.794;23.302;2023-09-07T01:52:59;10.10;;;6.55;;
70071;SDS011;57434;42.794;23.302;2023-09-07T01:54:00;11.10;;;5.93;;
70071;SDS011;57434;42.794;23.302;2023-09-07T01:55:02;10.93;;;6.53;;
70071;SDS011;57434;42.794;23.302;2023-09-07T01:56:04;10.60;;;5.70;;
70071;SDS011;57434;42.794;23.302;2023-09-07T01:57:06;9.55;;;6.40;;
70071;SDS011;57434;42.794;23.302;2023-09-07T01:58:07;10.52;;;6.97;;
70071;SDS011;57434;42.794;23.302;2023-09-07T01:59:09;11.32;;;6.10;;
70071;SDS011;57434;42.794;23.302;2023-09-07T02:02:43;12.25;;;6.13;;
70071;SDS011;57434;42.794;23.302;2023-09-07T02:03:44;10.43;;;6.15;;
70071;SDS011;57434;42.794;23.302;2023-09-07T02:04:46;10.98;;;6.22;;
70071;SDS011;57434;42.794;23.302;2023-09-07T02:05:48;11.83;;;6.60;;
70071;SDS011;57434;42.794;23.302;2023-09-07T02:06:49;10.60;;;6.10;;
70071;SDS011;57434;42.794;23.302;2023-09-07T02:07:51;10.75;;;6.75;;
70071;SDS011;57434;42.794;23.302;2023-09-07T02:08:53;13.32;;;6.80;;
70071;SDS011;57434;42.794;23.302;2023-09-07T02:09:54;12.77;;;6.90;;
70071;SDS011;57434;42.794;23.302;2023-09-07T02:10:56;12.77;;;7.03;;
70071;SDS011;57434;42.794;23.302;2023-09-07T02:11:57;10.85;;;6.72;;
70071;SDS011;57434;42.794;23.302;2023-09-07T02:12:59;11.43;;;6.85;;
70071;SDS011;57434;42.794;23.302;2023-09-07T02:14:01;13.85;;;7.22;;
70071;SDS011;57434;42.794;23.302;2023-09-07T02:15:03;12.57;;;7.40;;
70071;SDS011;57434;42.794;23.302;2023-09-07T02:16:05;12.73;;;7.70;;
70071;SDS011;57434;42.794;23.302;2023-09-07T02:17:06;12.70;;;7.60;;
70071;SDS011;57434;42.794;23.302;2023-09-07T02:18:08;13.32;;;8.00;;
70071;SDS011;57434;42.794;23.302;2023-09-07T02:19:10;11.25;;;7.32;;
70071;SDS011;57434;42.794;23.302;2023-09-07T02:20:11;11.50;;;7.88;;
70071;SDS011;57434;42.794;23.302;2023-09-07T02:21:13;12.18;;;7.28;;
70071;SDS011;57434;42.794;23.302;2023-09-07T02:22:15;15.15;;;7.40;;
70071;SDS011;57434;42.794;23.302;2023-09-07T02:23:16;13.60;;;8.15;;
70071;SDS011;57434;42.794;23.302;2023-09-07T02:24:18;11.35;;;7.70;;
70071;SDS011;57434;42.794;23.302;2023-09-07T02:25:19;13.20;;;7.50;;
70071;SDS011;57434;42.794;23.302;2023-09-07T02:26:21;12.77;;;7.53;;
70071;SDS011;57434;42.794;23.302;2023-09-07T02:27:23;11.73;;;7.20;;
70071;SDS011;57434;42.794;23.302;2023-09-07T02:28:25;12.05;;;7.93;;
70071;SDS011;57434;42.794;23.302;2023-09-07T02:29:27;11.82;;;7.93;;
70071;SDS011;57434;42.794;23.302;2023-09-07T02:30:28;13.23;;;8.00;;
70071;SDS011;57434;42.794;23.302;2023-09-07T02:31:30;12.35;;;7.95;;
70071;SDS011;57434;42.794;23.302;2023-09-07T02:32:32;13.02;;;8.27;;
70071;SDS011;57434;42.794;23.302;2023-09-07T02:33:33;12.95;;;7.80;;
70071;SDS011;57434;42.794;23.302;2023-09-07T02:34:35;11.13;;;7.15;;
70071;SDS011;57434;42.794;23.302;2023-09-07T02:35:37;11.88;;;7.80;;
70071;SDS011;57434;42.794;23.302;2023-09-07T02:36:38;11.97;;;8.20;;
70071;SDS011;57434;42.794;23.302;2023-09-07T02:37:40;18.63;;;8.35;;
70071;SDS011;57434;42.794;23.302;2023-09-07T02:38:42;11.20;;;7.80;;
70071;SDS011;57434;42.794;23.302;2023-09-07T02:39:43;14.48;;;8.20;;
70071;SDS011;57434;42.794;23.302;2023-09-07T02:40:45;13.77;;;8.00;;
70071;SDS011;57434;42.794;23.302;2023-09-07T02:41:47;12.90;;;8.63;;
70071;SDS011;57434;42.794;23.302;2023-09-07T02:42:48;12.52;;;7.38;;
70071;SDS011;57434;42.794;23.302;2023-09-07T02:43:50;14.25;;;8.68;;
70071;SDS011;57434;42.794;23.302;2023-09-07T02:44:51;13.57;;;8.25;;
70071;SDS011;57434;42.794;23.302;2023-09-07T02:45:53;11.88;;;7.38;;
70071;SDS011;57434;42.794;23.302;2023-09-07T02:46:55;15.87;;;7.83;;
70071;SDS011;57434;42.794;23.302;2023-09-07T02:47:56;12.98;;;8.68;;
70071;SDS011;57434;42.794;23.302;2023-09-07T02:48:58;15.52;;;7.68;;
70071;SDS011;57434;42.794;23.302;2023-09-07T02:51:17;16.10;;;8.00;;
70071;SDS011;57434;42.794;23.302;2023-09-07T02:52:19;12.52;;;8.05;;
70071;SDS011;57434;42.794;23.302;2023-09-07T02:53:20;13.07;;;8.45;;
70071;SDS011;57434;42.794;23.302;2023-09-07T02:54:22;12.65;;;8.32;;
70071;SDS011;57434;42.794;23.302;2023-09-07T02:55:24;11.25;;;7.90;;
70071;SDS011;57434;42.794;23.302;2023-09-07T02:56:25;10.77;;;7.55;;
70071;SDS011;57434;42.794;23.302;2023-09-07T02:57:27;12.77;;;7.60;;
70071;SDS011;57434;42.794;23.302;2023-09-07T02:58:28;14.05;;;7.97;;
70071;SDS011;57434;42.794;23.302;2023-09-07T02:59:30;13.23;;;7.60;;
70071;SDS011;57434;42.794;23.302;2023-09-07T03:00:32;12.10;;;8.00;;
70071;SDS011;57434;42.794;23.302;2023-09-07T03:01:33;14.18;;;7.55;;
70071;SDS011;57434;42.794;23.302;2023-09-07T03:02:36;12.73;;;7.65;;
70071;SDS011;57434;42.794;23.302;2023-09-07T03:03:38;11.57;;;7.30;;
70071;SDS011;57434;42.794;23.302;2023-09-07T03:04:39;11.95;;;7.35;;
70071;SDS011;57434;42.794;23.302;2023-09-07T03:05:41;15.07;;;7.97;;
70071;SDS011;57434;42.794;23.302;2023-09-07T03:06:43;15.48;;;7.05;;
70071;SDS011;57434;42.794;23.302;2023-09-07T03:07:45;11.27;;;7.03;;
70071;SDS011;57434;42.794;23.302;2023-09-07T03:08:47;13.35;;;7.65;;
70071;SDS011;57434;42.794;23.302;2023-09-07T03:09:49;13.32;;;7.47;;
70071;SDS011;57434;42.794;23.302;2023-09-07T03:10:52;12.15;;;7.63;;
70071;SDS011;57434;42.794;23.302;2023-09-07T03:11:56;12.27;;;7.45;;
70071;SDS011;57434;42.794;23.302;2023-09-07T03:12:58;12.27;;;7.20;;
70071;SDS011;57434;42.794;23.302;2023-09-07T03:14:00;15.45;;;8.02;;
70071;SDS011;57434;42.794;23.302;2023-09-07T03:15:02;11.93;;;7.63;;
70071;SDS011;57434;42.794;23.302;2023-09-07T03:16:04;14.70;;;7.72;;
70071;SDS011;57434;42.794;23.302;2023-09-07T03:17:06;11.70;;;7.55;;
70071;SDS011;57434;42.794;23.302;2023-09-07T03:18:07;13.67;;;7.47;;
70071;SDS011;57434;42.794;23.302;2023-09-07T03:19:09;12.13;;;6.78;;
70071;SDS011;57434;42.794;23.302;2023-09-07T03:20:11;12.55;;;7.55;;
70071;SDS011;57434;42.794;23.302;2023-09-07T03:21:12;14.02;;;7.35;;
70071;SDS011;57434;42.794;23.302;2023-09-07T03:22:14;10.35;;;5.80;;
70071;SDS011;57434;42.794;23.302;2023-09-07T03:23:16;11.27;;;5.80;;
70071;SDS011;57434;42.794;23.302;2023-09-07T03:24:17;10.55;;;6.20;;
70071;SDS011;57434;42.794;23.302;2023-09-07T03:25:19;9.35;;;5.78;;
70071;SDS011;57434;42.794;23.302;2023-09-07T03:26:20;10.85;;;6.15;;
70071;SDS011;57434;42.794;23.302;2023-09-07T03:27:22;13.38;;;5.70;;
70071;SDS011;57434;42.794;23.302;2023-09-07T03:28:24;10.43;;;5.50;;
70071;SDS011;57434;42.794;23.302;2023-09-07T03:29:25;9.68;;;5.50;;
70071;SDS011;57434;42.794;23.302;2023-09-07T03:30:27;10.82;;;5.50;;
70071;SDS011;57434;42.794;23.302;2023-09-07T03:31:29;10.88;;;6.40;;
70071;SDS011;57434;42.794;23.302;2023-09-07T03:32:31;9.73;;;5.47;;
70071;SDS011;57434;42.794;23.302;2023-09-07T03:33:32;9.75;;;5.18;;
70071;SDS011;57434;42.794;23.302;2023-09-07T03:34:34;10.65;;;5.18;;
70071;SDS011;57434;42.794;23.302;2023-09-07T03:35:36;10.73;;;5.20;;
70071;SDS011;57434;42.794;23.302;2023-09-07T03:36:37;10.93;;;4.90;;
70071;SDS011;57434;42.794;23.302;2023-09-07T03:37:39;9.65;;;5.55;;
70071;SDS011;57434;42.794;23.302;2023-09-07T03:38:43;9.00;;;5.47;;
70071;SDS011;57434;42.794;23.302;2023-09-07T03:39:45;8.45;;;5.00;;
70071;SDS011;57434;42.794;23.302;2023-09-07T03:40:46;8.52;;;4.85;;
70071;SDS011;57434;42.794;23.302;2023-09-07T03:41:48;8.75;;;4.82;;
70071;SDS011;57434;42.794;23.302;2023-09-07T03:42:49;9.20;;;5.07;;
70071;SDS011;57434;42.794;23.302;2023-09-07T03:43:51;8.65;;;4.78;;
70071;SDS011;57434;42.794;23.302;2023-09-07T03:44:53;8.93;;;4.50;;
70071;SDS011;57434;42.794;23.302;2023-09-07T03:45:54;9.70;;;5.05;;
70071;SDS011;57434;42.794;23.302;2023-09-07T03:46:58;9.38;;;4.82;;
70071;SDS011;57434;42.794;23.302;2023-09-07T03:48:00;11.88;;;5.30;;
70071;SDS011;57434;42.794;23.302;2023-09-07T03:49:02;12.40;;;6.20;;
70071;SDS011;57434;42.794;23.302;2023-09-07T03:50:04;10.52;;;5.30;;
70071;SDS011;57434;42.794;23.302;2023-09-07T03:51:08;8.60;;;5.28;;
70071;SDS011;57434;42.794;23.302;2023-09-07T03:52:10;11.73;;;6.78;;
70071;SDS011;57434;42.794;23.302;2023-09-07T03:53:11;13.88;;;7.43;;
70071;SDS011;57434;42.794;23.302;2023-09-07T03:54:13;17.02;;;9.02;;
70071;SDS011;57434;42.794;23.302;2023-09-07T03:55:14;21.00;;;11.20;;
70071;SDS011;57434;42.794;23.302;2023-09-07T03:56:16;21.98;;;11.40;;
70071;SDS011;57434;42.794;23.302;2023-09-07T03:57:18;13.35;;;8.20;;
70071;SDS011;57434;42.794;23.302;2023-09-07T03:58:20;12.50;;;4.60;;
70071;SDS011;57434;42.794;23.302;2023-09-07T03:59:21;11.60;;;5.30;;
70071;SDS011;57434;42.794;23.302;2023-09-07T04:00:23;10.35;;;5.65;;
70071;SDS011;57434;42.794;23.302;2023-09-07T04:01:24;11.02;;;5.90;;
70071;SDS011;57434;42.794;23.302;2023-09-07T04:02:26;9.98;;;5.35;;
70071;SDS011;57434;42.794;23.302;2023-09-07T04:03:28;10.48;;;5.95;;
70071;SDS011;57434;42.794;23.302;2023-09-07T04:04:30;11.80;;;5.80;;
70071;SDS011;57434;42.794;23.302;2023-09-07T04:05:32;11.02;;;5.65;;
70071;SDS011;57434;42.794;23.302;2023-09-07T04:06:33;10.15;;;6.20;;
70071;SDS011;57434;42.794;23.302;2023-09-07T04:07:35;10.57;;;5.72;;
70071;SDS011;57434;42.794;23.302;2023-09-07T04:08:37;15.20;;;5.72;;
70071;SDS011;57434;42.794;23.302;2023-09-07T04:09:38;11.33;;;5.90;;
70071;SDS011;57434;42.794;23.302;2023-09-07T04:10:43;9.52;;;5.25;;
70071;SDS011;57434;42.794;23.302;2023-09-07T04:11:44;10.82;;;5.60;;
70071;SDS011;57434;42.794;23.302;2023-09-07T04:12:46;11.63;;;5.25;;
70071;SDS011;57434;42.794;23.302;2023-09-07T04:13:47;10.15;;;5.25;;
70071;SDS011;57434;42.794;23.302;2023-09-07T04:14:49;11.50;;;5.47;;
70071;SDS011;57434;42.794;23.302;2023-09-07T04:15:51;12.13;;;5.20;;
70071;SDS011;57434;42.794;23.302;2023-09-07T04:16:52;12.30;;;5.65;;
70071;SDS011;57434;42.794;23.302;2023-09-07T04:17:54;9.40;;;5.30;;
70071;SDS011;57434;42.794;23.302;2023-09-07T04:18:55;9.25;;;5.22;;
70071;SDS011;57434;42.794;23.302;2023-09-07T04:19:57;10.90;;;5.13;;
70071;SDS011;57434;42.794;23.302;2023-09-07T04:21:08;12.43;;;5.55;;
70071;SDS011;57434;42.794;23.302;2023-09-07T04:22:10;10.63;;;5.30;;
70071;SDS011;57434;42.794;23.302;2023-09-07T04:23:12;10.05;;;5.22;;
70071;SDS011;57434;42.794;23.302;2023-09-07T04:24:14;9.82;;;5.22;;
70071;SDS011;57434;42.794;23.302;2023-09-07T04:25:15;9.73;;;5.07;;
70071;SDS011;57434;42.794;23.302;2023-09-07T04:26:17;10.75;;;6.18;;
70071;SDS011;57434;42.794;23.302;2023-09-07T04:27:18;11.13;;;6.18;;
70071;SDS011;57434;42.794;23.302;2023-09-07T04:28:20;16.17;;;6.45;;
70071;SDS011;57434;42.794;23.302;2023-09-07T04:29:22;9.88;;;5.30;;
70071;SDS011;57434;42.794;23.302;2023-09-07T04:30:23;9.70;;;5.77;;
70071;SDS011;57434;42.794;23.302;2023-09-07T04:31:25;11.80;;;6.43;;
70071;SDS011;57434;42.794;23.302;2023-09-07T04:32:27;9.43;;;5.43;;
70071;SDS011;57434;42.794;23.302;2023-09-07T04:33:31;10.32;;;5.35;;
70071;SDS011;57434;42.794;23.302;2023-09-07T04:34:33;9.70;;;5.63;;
70071;SDS011;57434;42.794;23.302;2023-09-07T04:35:35;11.63;;;5.72;;
70071;SDS011;57434;42.794;23.302;2023-09-07T04:36:36;12.15;;;6.07;;
70071;SDS011;57434;42.794;23.302;2023-09-07T04:37:38;9.75;;;5.40;;
70071;SDS011;57434;42.794;23.302;2023-09-07T04:38:40;10.02;;;5.55;;
70071;SDS011;57434;42.794;23.302;2023-09-07T04:39:41;11.20;;;5.28;;
70071;SDS011;57434;42.794;23.302;2023-09-07T04:40:43;10.67;;;5.50;;
70071;SDS011;57434;42.794;23.302;2023-09-07T04:41:44;8.15;;;4.63;;
70071;SDS011;57434;42.794;23.302;2023-09-07T04:42:46;8.63;;;5.00;;
70071;SDS011;57434;42.794;23.302;2023-09-07T04:43:48;10.05;;;5.22;;
70071;SDS011;57434;42.794;23.302;2023-09-07T04:44:49;10.65;;;4.97;;
70071;SDS011;57434;42.794;23.302;2023-09-07T04:45:51;9.85;;;5.60;;
70071;SDS011;57434;42.794;23.302;2023-09-07T04:46:54;11.38;;;5.78;;
70071;SDS011;57434;42.794;23.302;2023-09-07T04:47:56;9.70;;;5.18;;
70071;SDS011;57434;42.794;23.302;2023-09-07T04:48:57;10.73;;;6.75;;
70071;SDS011;57434;42.794;23.302;2023-09-07T04:49:59;12.13;;;6.45;;
70071;SDS011;57434;42.794;23.302;2023-09-07T04:51:01;8.77;;;4.73;;
70071;SDS011;57434;42.794;23.302;2023-09-07T04:52:03;15.10;;;8.23;;
70071;SDS011;57434;42.794;23.302;2023-09-07T04:53:04;9.77;;;5.30;;
70071;SDS011;57434;42.794;23.302;2023-09-07T04:54:06;14.48;;;8.40;;
70071;SDS011;57434;42.794;23.302;2023-09-07T04:55:08;22.00;;;12.48;;
70071;SDS011;57434;42.794;23.302;2023-09-07T04:56:09;11.45;;;5.28;;
70071;SDS011;57434;42.794;23.302;2023-09-07T04:57:11;8.02;;;4.30;;
70071;SDS011;57434;42.794;23.302;2023-09-07T04:58:13;9.80;;;5.43;;
70071;SDS011;57434;42.794;23.302;2023-09-07T04:59:15;8.73;;;4.53;;
70071;SDS011;57434;42.794;23.302;2023-09-07T05:00:16;10.55;;;5.07;;
70071;SDS011;57434;42.794;23.302;2023-09-07T05:01:18;9.17;;;5.23;;
70071;SDS011;57434;42.794;23.302;2023-09-07T05:02:20;10.20;;;6.43;;
70071;SDS011;57434;42.794;23.302;2023-09-07T05:03:21;11.05;;;5.15;;
70071;SDS011;57434;42.794;23.302;2023-09-07T05:04:23;10.70;;;6.22;;
70071;SDS011;57434;42.794;23.302;2023-09-07T05:05:24;9.75;;;5.30;;
70071;SDS011;57434;42.794;23.302;2023-09-07T05:06:26;10.63;;;6.18;;
70071;SDS011;57434;42.794;23.302;2023-09-07T05:07:28;9.02;;;5.43;;
70071;SDS011;57434;42.794;23.302;2023-09-07T05:08:29;9.88;;;5.45;;
70071;SDS011;57434;42.794;23.302;2023-09-07T05:09:32;9.38;;;4.93;;
70071;SDS011;57434;42.794;23.302;2023-09-07T05:10:34;11.35;;;5.03;;
70071;SDS011;57434;42.794;23.302;2023-09-07T05:11:35;11.90;;;5.73;;
70071;SDS011;57434;42.794;23.302;2023-09-07T05:12:37;9.30;;;5.65;;
70071;SDS011;57434;42.794;23.302;2023-09-07T05:13:39;11.63;;;5.22;;
70071;SDS011;57434;42.794;23.302;2023-09-07T05:14:40;13.65;;;8.50;;
70071;SDS011;57434;42.794;23.302;2023-09-07T05:15:48;9.32;;;5.40;;
70071;SDS011;57434;42.794;23.302;2023-09-07T05:16:50;8.82;;;5.00;;
70071;SDS011;57434;42.794;23.302;2023-09-07T05:17:53;8.65;;;4.78;;
70071;SDS011;57434;42.794;23.302;2023-09-07T05:18:54;10.23;;;5.13;;
70071;SDS011;57434;42.794;23.302;2023-09-07T05:19:56;10.45;;;6.13;;
70071;SDS011;57434;42.794;23.302;2023-09-07T05:20:57;9.15;;;4.80;;
70071;SDS011;57434;42.794;23.302;2023-09-07T05:21:59;10.33;;;5.80;;
70071;SDS011;57434;42.794;23.302;2023-09-07T05:23:01;11.98;;;5.20;;
70071;SDS011;57434;42.794;23.302;2023-09-07T05:24:02;17.13;;;7.97;;
70071;SDS011;57434;42.794;23.302;2023-09-07T05:25:04;10.20;;;5.78;;
70071;SDS011;57434;42.794;23.302;2023-09-07T05:26:05;9.82;;;4.60;;
70071;SDS011;57434;42.794;23.302;2023-09-07T05:27:07;9.07;;;4.70;;
70071;SDS011;57434;42.794;23.302;2023-09-07T05:28:08;8.73;;;5.03;;
70071;SDS011;57434;42.794;23.302;2023-09-07T05:29:11;10.23;;;4.13;;
70071;SDS011;57434;42.794;23.302;2023-09-07T05:30:12;9.95;;;4.60;;
70071;SDS011;57434;42.794;23.302;2023-09-07T05:31:14;11.68;;;6.63;;
70071;SDS011;57434;42.794;23.302;2023-09-07T05:32:16;8.13;;;4.97;;
70071;SDS011;57434;42.794;23.302;2023-09-07T05:33:17;9.90;;;4.30;;
70071;SDS011;57434;42.794;23.302;2023-09-07T05:34:19;9.10;;;4.70;;
70071;SDS011;57434;42.794;23.302;2023-09-07T05:35:21;7.97;;;4.20;;
70071;SDS011;57434;42.794;23.302;2023-09-07T05:36:22;7.80;;;4.25;;
70071;SDS011;57434;42.794;23.302;2023-09-07T05:37:24;8.75;;;4.47;;
70071;SDS011;57434;42.794;23.302;2023-09-07T05:38:25;8.30;;;4.57;;
70071;SDS011;57434;42.794;23.302;2023-09-07T05:39:27;9.90;;;5.50;;
70071;SDS011;57434;42.794;23.302;2023-09-07T05:40:29;7.40;;;3.85;;
70071;SDS011;57434;42.794;23.302;2023-09-07T05:41:30;9.70;;;4.53;;
70071;SDS011;57434;42.794;23.302;2023-09-07T05:42:32;8.30;;;3.87;;
70071;SDS011;57434;42.794;23.302;2023-09-07T05:43:34;8.50;;;4.32;;
70071;SDS011;57434;42.794;23.302;2023-09-07T05:44:35;9.85;;;4.85;;
70071;SDS011;57434;42.794;23.302;2023-09-07T05:45:38;10.32;;;4.63;;
70071;SDS011;57434;42.794;23.302;2023-09-07T05:46:39;7.53;;;4.10;;
70071;SDS011;57434;42.794;23.302;2023-09-07T05:47:41;9.43;;;4.13;;
70071;SDS011;57434;42.794;23.302;2023-09-07T05:48:44;8.00;;;4.57;;
70071;SDS011;57434;42.794;23.302;2023-09-07T05:49:46;9.23;;;4.88;;
70071;SDS011;57434;42.794;23.302;2023-09-07T05:50:47;8.88;;;4.15;;
70071;SDS011;57434;42.794;23.302;2023-09-07T05:51:49;8.85;;;4.93;;
70071;SDS011;57434;42.794;23.302;2023-09-07T05:52:50;12.40;;;5.37;;
70071;SDS011;57434;42.794;23.302;2023-09-07T05:53:53;8.15;;;4.63;;
70071;SDS011;57434;42.794;23.302;2023-09-07T05:54:55;8.55;;;4.93;;
70071;SDS011;57434;42.794;23.302;2023-09-07T05:55:57;8.45;;;4.60;;
70071;SDS011;57434;42.794;23.302;2023-09-07T05:56:58;10.25;;;4.15;;
70071;SDS011;57434;42.794;23.302;2023-09-07T05:58:03;10.05;;;5.57;;
70071;SDS011;57434;42.794;23.302;2023-09-07T05:59:05;8.07;;;4.70;;
70071;SDS011;57434;42.794;23.302;2023-09-07T06:00:07;8.55;;;4.78;;
70071;SDS011;57434;42.794;23.302;2023-09-07T06:01:09;9.40;;;4.95;;
70071;SDS011;57434;42.794;23.302;2023-09-07T06:02:11;13.35;;;6.95;;
70071;SDS011;57434;42.794;23.302;2023-09-07T06:03:12;12.10;;;6.47;;
70071;SDS011;57434;42.794;23.302;2023-09-07T06:04:14;8.75;;;4.47;;
70071;SDS011;57434;42.794;23.302;2023-09-07T06:05:16;7.50;;;4.03;;
70071;SDS011;57434;42.794;23.302;2023-09-07T06:06:18;8.77;;;4.18;;
70071;SDS011;57434;42.794;23.302;2023-09-07T06:07:19;8.75;;;5.20;;
70071;SDS011;57434;42.794;23.302;2023-09-07T06:08:21;9.00;;;4.50;;